Time;durP1;ratioP1;P1;durP2;ratioP2;P2;SDS_P1;SDS_P2;PMS_P1;PMS_P2;Temp;Humidity;BMP_temperature;BMP_pressure;BME280_temperature;BME280_humidity;BME280_pressure;Samples;Min_cycle;Max_cycle;Signal;HPM_P1;HPM_P2
2023/12/28 00:01:02;;;;;;;2.90;2.70;;;7.80;99.90;;;;;;4978656;28;21049;-64
2023/12/28 00:03:30;;;;;;;2.73;2.50;;;7.80;99.90;;;;;;4979665;28;20466;-64
2023/12/28 00:05:58;;;;;;;3.10;2.30;;;7.90;99.90;;;;;;4980786;28;20469;-64
2023/12/28 00:08:26;;;;;;;3.57;2.37;;;7.90;99.90;;;;;;4980020;28;20895;-64
2023/12/28 00:10:55;;;;;;;3.07;2.50;;;7.90;99.90;;;;;;4979492;28;20557;-64
2023/12/28 00:13:23;;;;;;;3.00;2.70;;;7.90;99.90;;;;;;4977497;28;20580;-64
2023/12/28 00:15:51;;;;;;;3.47;2.90;;;7.90;99.90;;;;;;4979405;28;21077;-64
2023/12/28 00:18:19;;;;;;;2.57;2.37;;;7.90;99.90;;;;;;4978993;28;20544;-64
2023/12/28 00:20:50;;;;;;;4.00;2.70;;;7.90;99.90;;;;;;4981140;28;20529;-65
2023/12/28 00:23:20;;;;;;;3.03;2.60;;;7.90;99.90;;;;;;4981817;28;20465;-65
2023/12/28 00:25:48;;;;;;;3.23;2.70;;;7.90;99.90;;;;;;4984671;28;20543;-64
2023/12/28 00:28:18;;;;;;;3.40;2.20;;;7.90;99.90;;;;;;4981858;28;20478;-64
2023/12/28 00:30:46;;;;;;;6.40;2.63;;;7.90;99.90;;;;;;4982120;28;20476;-64
2023/12/28 00:33:14;;;;;;;4.20;2.57;;;7.90;99.90;;;;;;4982537;28;21026;-64
2023/12/28 00:35:42;;;;;;;2.97;2.50;;;7.90;99.90;;;;;;4984195;28;20895;-64
2023/12/28 00:38:10;;;;;;;2.90;2.67;;;7.90;99.90;;;;;;4984102;28;20485;-64
2023/12/28 00:40:38;;;;;;;3.20;2.47;;;7.90;99.90;;;;;;4983311;28;20469;-64
2023/12/28 00:43:07;;;;;;;2.77;2.47;;;7.80;99.90;;;;;;4980870;28;20543;-64
2023/12/28 00:45:36;;;;;;;2.50;2.30;;;7.80;99.90;;;;;;4982969;28;20556;-64
2023/12/28 00:48:05;;;;;;;2.83;2.63;;;7.80;99.90;;;;;;4980522;28;20884;-64
2023/12/28 00:50:33;;;;;;;3.00;2.30;;;7.70;99.90;;;;;;4983446;28;20505;-64
2023/12/28 00:53:01;;;;;;;3.27;2.80;;;7.70;99.90;;;;;;4980358;28;20469;-65
2023/12/28 00:55:29;;;;;;;3.37;2.73;;;7.70;99.90;;;;;;4983564;28;20772;-65
2023/12/28 00:57:57;;;;;;;2.70;2.50;;;7.70;99.90;;;;;;4981193;28;20533;-64
2023/12/28 01:00:26;;;;;;;2.57;2.37;;;7.60;99.90;;;;;;4981268;28;20481;-64
2023/12/28 01:02:55;;;;;;;4.53;2.70;;;7.60;99.90;;;;;;4983229;28;20477;-64
2023/12/28 01:05:25;;;;;;;3.43;2.97;;;7.60;99.90;;;;;;4982660;28;20500;-65
2023/12/28 01:07:54;;;;;;;3.00;2.70;;;7.60;99.90;;;;;;4982615;28;20489;-64
2023/12/28 01:10:22;;;;;;;4.50;2.83;;;7.60;99.90;;;;;;4983210;28;20481;-64
2023/12/28 01:12:52;;;;;;;2.80;2.60;;;7.60;99.90;;;;;;4980501;28;20543;-64
2023/12/28 01:15:20;;;;;;;4.10;2.60;;;7.60;99.90;;;;;;4981387;28;20498;-65
2023/12/28 01:17:48;;;;;;;3.93;2.53;;;7.60;99.90;;;;;;4981999;28;21056;-64
2023/12/28 01:20:18;;;;;;;2.93;2.63;;;7.60;99.90;;;;;;4983253;28;20492;-64
2023/12/28 01:22:46;;;;;;;2.70;2.50;;;7.60;99.90;;;;;;4981428;28;20509;-65
2023/12/28 01:25:14;;;;;;;4.87;3.33;;;7.60;99.90;;;;;;4982327;28;20497;-64
2023/12/28 01:27:42;;;;;;;3.20;2.70;;;7.70;99.90;;;;;;4980891;28;20544;-64
2023/12/28 01:30:11;;;;;;;2.73;2.43;;;7.70;99.90;;;;;;4983105;28;20473;-64
2023/12/28 01:32:39;;;;;;;2.93;2.73;;;7.70;99.90;;;;;;4981697;28;21117;-65
2023/12/28 01:35:07;;;;;;;3.67;3.20;;;7.70;99.90;;;;;;4982042;28;20490;-65
2023/12/28 01:37:37;;;;;;;5.37;3.90;;;7.70;99.90;;;;;;4980738;28;21002;-64
2023/12/28 01:40:06;;;;;;;4.27;2.93;;;7.70;99.90;;;;;;4982380;28;20473;-64
2023/12/28 01:42:35;;;;;;;3.00;2.80;;;7.80;99.90;;;;;;4980693;28;20931;-65
2023/12/28 01:45:04;;;;;;;5.77;3.40;;;7.80;99.90;;;;;;4977268;28;20493;-64
2023/12/28 01:47:32;;;;;;;3.73;3.43;;;7.80;99.90;;;;;;4981875;28;20580;-65
2023/12/28 01:50:01;;;;;;;2.80;2.60;;;7.80;99.90;;;;;;4979948;28;20589;-64
2023/12/28 01:52:30;;;;;;;4.20;2.70;;;7.80;99.90;;;;;;4981832;28;20473;-65
2023/12/28 01:55:00;;;;;;;3.60;3.03;;;7.80;99.90;;;;;;4981679;28;20493;-64
2023/12/28 01:57:28;;;;;;;3.63;3.20;;;7.80;99.90;;;;;;4981284;28;20569;-65
2023/12/28 01:59:58;;;;;;;3.50;3.20;;;7.80;99.90;;;;;;4980448;28;20519;-62
2023/12/28 02:02:26;;;;;;;3.30;3.00;;;7.80;99.90;;;;;;4981344;28;21057;-64
2023/12/28 02:04:55;;;;;;;3.27;2.93;;;7.80;99.90;;;;;;4980587;28;20548;-63
2023/12/28 02:07:23;;;;;;;3.70;2.93;;;7.90;99.90;;;;;;4981445;28;20572;-64
2023/12/28 02:09:51;;;;;;;3.20;2.90;;;7.90;99.90;;;;;;4980285;28;20489;-65
2023/12/28 02:12:21;;;;;;;3.83;3.43;;;7.90;99.90;;;;;;4980814;28;20885;-64
2023/12/28 02:14:49;;;;;;;3.70;3.37;;;8.00;99.90;;;;;;4981156;28;20551;-64
2023/12/28 02:17:22;;;;;;;3.80;3.50;;;8.00;99.90;;;;;;4980878;28;20581;-64
2023/12/28 02:19:52;;;;;;;3.83;2.90;;;8.00;99.90;;;;;;4979266;28;20583;-65
2023/12/28 02:22:22;;;;;;;4.07;3.10;;;8.10;99.90;;;;;;4980789;28;20553;-65
2023/12/28 02:25:11;;;;;;;3.90;3.47;;;8.10;99.90;;;;;;4981814;28;20556;-64
2023/12/28 02:27:42;;;;;;;3.40;3.10;;;8.10;99.90;;;;;;4979400;28;20489;-64
2023/12/28 02:30:11;;;;;;;3.73;3.20;;;8.10;99.90;;;;;;4979517;28;20501;-64
2023/12/28 02:32:56;;;;;;;4.47;4.00;;;8.10;99.90;;;;;;4981977;28;20552;-65
2023/12/28 02:35:30;;;;;;;3.57;3.27;;;8.10;99.90;;;;;;4980669;28;20539;-64
2023/12/28 02:38:02;;;;;;;4.00;3.40;;;8.20;99.90;;;;;;4981154;28;20572;-65
2023/12/28 02:40:36;;;;;;;3.67;3.10;;;8.20;99.90;;;;;;4981960;28;20488;-64
2023/12/28 02:43:05;;;;;;;3.00;2.80;;;8.20;99.90;;;;;;4980260;28;20469;-64
2023/12/28 02:45:33;;;;;;;3.47;3.17;;;8.20;99.90;;;;;;4980102;28;21214;-65
2023/12/28 02:48:01;;;;;;;4.27;3.87;;;8.20;99.90;;;;;;4980200;28;20481;-65
2023/12/28 02:50:30;;;;;;;3.50;3.20;;;8.10;99.90;;;;;;4979472;28;20478;-63
2023/12/28 02:52:58;;;;;;;3.93;3.30;;;8.10;99.90;;;;;;4980077;28;20476;-63
2023/12/28 02:55:26;;;;;;;3.67;3.30;;;8.10;99.90;;;;;;4980110;28;20977;-63
2023/12/28 02:57:59;;;;;;;3.40;3.10;;;8.10;99.90;;;;;;4979564;28;20529;-63
2023/12/28 03:00:28;;;;;;;3.30;3.00;;;8.10;99.90;;;;;;4978709;28;20477;-62
2023/12/28 03:02:57;;;;;;;4.30;3.70;;;8.10;99.90;;;;;;4981194;28;20978;-62
2023/12/28 03:05:25;;;;;;;4.53;4.00;;;8.10;99.90;;;;;;4981116;28;20462;-63
2023/12/28 03:07:55;;;;;;;5.40;3.50;;;8.20;99.90;;;;;;4980294;28;20933;-65
2023/12/28 03:10:23;;;;;;;5.87;4.13;;;8.20;99.90;;;;;;4979168;28;20478;-62
2023/12/28 03:12:51;;;;;;;4.43;3.93;;;8.20;99.90;;;;;;4980391;28;20484;-62
2023/12/28 03:15:21;;;;;;;3.80;3.50;;;8.20;99.90;;;;;;4980750;28;20528;-64
2023/12/28 03:17:49;;;;;;;4.00;3.60;;;8.20;99.90;;;;;;4978689;28;20979;-65
2023/12/28 03:20:17;;;;;;;3.77;3.47;;;8.20;99.90;;;;;;4979152;28;20487;-64
2023/12/28 03:22:45;;;;;;;4.03;3.50;;;8.20;99.90;;;;;;4981385;28;20564;-65
2023/12/28 03:25:13;;;;;;;4.10;3.80;;;8.20;99.90;;;;;;4980382;28;20481;-64
2023/12/28 03:27:41;;;;;;;3.63;3.33;;;8.20;99.90;;;;;;4977842;28;20925;-62
2023/12/28 03:30:11;;;;;;;4.53;3.80;;;8.20;99.90;;;;;;4980330;28;20476;-64
2023/12/28 03:32:41;;;;;;;3.70;3.40;;;8.20;99.90;;;;;;4982719;28;20478;-63
2023/12/28 03:35:09;;;;;;;4.70;3.70;;;8.20;99.90;;;;;;4981964;28;20536;-62
2023/12/28 03:37:37;;;;;;;5.03;3.83;;;8.20;99.90;;;;;;4982785;28;20500;-62
2023/12/28 03:40:06;;;;;;;3.87;3.43;;;8.20;99.90;;;;;;4980893;28;21027;-62
2023/12/28 03:42:34;;;;;;;4.10;3.60;;;8.20;99.90;;;;;;4978701;28;21235;-62
2023/12/28 03:45:02;;;;;;;4.50;3.53;;;8.10;99.90;;;;;;4981135;28;20473;-62
2023/12/28 03:47:30;;;;;;;3.80;3.50;;;8.10;99.90;;;;;;4979983;28;20552;-62
2023/12/28 03:50:00;;;;;;;4.83;3.77;;;8.10;99.90;;;;;;4980678;28;20500;-62
2023/12/28 03:52:29;;;;;;;4.63;3.73;;;8.10;99.90;;;;;;4979811;28;21040;-61
2023/12/28 03:54:58;;;;;;;4.53;3.60;;;8.10;99.90;;;;;;4979035;28;20500;-62
2023/12/28 03:57:26;;;;;;;6.00;4.00;;;8.10;99.90;;;;;;4978566;28;21017;-62
2023/12/28 03:59:54;;;;;;;4.70;4.03;;;8.10;99.90;;;;;;4983662;28;20482;-62
2023/12/28 04:02:24;;;;;;;4.30;3.90;;;8.20;99.90;;;;;;4984655;28;20528;-62
2023/12/28 04:04:52;;;;;;;4.63;4.17;;;8.20;99.90;;;;;;4983832;28;20471;-62
2023/12/28 04:07:22;;;;;;;3.93;3.40;;;8.20;99.90;;;;;;4984237;28;20552;-63
2023/12/28 04:09:50;;;;;;;5.40;4.00;;;8.10;99.90;;;;;;4982773;28;20584;-61
2023/12/28 04:12:18;;;;;;;4.17;3.80;;;8.10;99.90;;;;;;4983595;28;20503;-62
2023/12/28 04:14:46;;;;;;;3.93;3.63;;;8.10;99.90;;;;;;4982292;28;20469;-62
2023/12/28 04:17:14;;;;;;;3.90;3.60;;;8.10;99.90;;;;;;4984249;28;20551;-63
2023/12/28 04:19:42;;;;;;;3.97;3.57;;;8.10;99.90;;;;;;4983635;28;20489;-65
2023/12/28 04:22:10;;;;;;;4.60;3.37;;;8.10;99.90;;;;;;4984189;28;20488;-62
2023/12/28 04:24:40;;;;;;;4.40;3.57;;;8.10;99.90;;;;;;4982335;28;20473;-62
2023/12/28 04:27:08;;;;;;;5.10;3.73;;;8.10;99.90;;;;;;4982055;28;20697;-62
2023/12/28 04:29:36;;;;;;;3.43;3.20;;;8.10;99.90;;;;;;4984191;28;20513;-62
2023/12/28 04:32:04;;;;;;;3.20;3.00;;;8.10;99.90;;;;;;4977214;28;20961;-62
2023/12/28 04:34:32;;;;;;;4.20;3.80;;;8.10;99.90;;;;;;4982270;28;21052;-62
2023/12/28 04:37:00;;;;;;;4.10;3.60;;;8.20;99.90;;;;;;4983140;28;20576;-62
2023/12/28 04:39:28;;;;;;;4.20;3.87;;;8.10;99.90;;;;;;4982261;28;20540;-63
2023/12/28 04:41:58;;;;;;;3.87;3.57;;;8.10;99.90;;;;;;4982868;28;20468;-62
2023/12/28 04:44:26;;;;;;;4.40;3.70;;;8.10;99.90;;;;;;4982028;28;20525;-63
2023/12/28 04:46:54;;;;;;;3.93;3.60;;;8.10;99.90;;;;;;4983779;28;20683;-62
2023/12/28 04:49:22;;;;;;;4.07;3.67;;;8.20;99.90;;;;;;4981915;28;20567;-62
2023/12/28 04:51:50;;;;;;;4.80;3.70;;;8.20;99.90;;;;;;4983471;28;20557;-64
2023/12/28 04:54:18;;;;;;;4.83;3.60;;;8.20;99.90;;;;;;4982207;28;20915;-64
2023/12/28 04:56:46;;;;;;;4.90;3.50;;;8.20;99.90;;;;;;4982178;28;20496;-63
2023/12/28 04:59:15;;;;;;;4.07;3.70;;;8.10;99.90;;;;;;4982873;28;20549;-63
2023/12/28 05:01:44;;;;;;;3.90;3.50;;;8.10;99.90;;;;;;4983631;28;20556;-64
2023/12/28 05:04:12;;;;;;;4.73;3.30;;;8.10;99.90;;;;;;4981798;28;20474;-62
2023/12/28 05:06:44;;;;;;;4.40;3.93;;;8.10;99.90;;;;;;4982527;28;20489;-63
2023/12/28 05:09:13;;;;;;;5.33;3.60;;;8.10;99.90;;;;;;4979939;28;20482;-64
2023/12/28 05:11:41;;;;;;;5.17;3.77;;;8.10;99.90;;;;;;4982127;28;20472;-62
2023/12/28 05:14:09;;;;;;;4.67;4.07;;;8.10;99.90;;;;;;4983472;28;20569;-64
2023/12/28 05:16:39;;;;;;;4.77;4.37;;;8.10;99.90;;;;;;4982862;28;20598;-64
2023/12/28 05:19:08;;;;;;;4.20;3.80;;;8.10;99.90;;;;;;4982271;28;20477;-65
2023/12/28 05:21:37;;;;;;;4.27;3.33;;;8.10;99.90;;;;;;4979634;28;20512;-64
2023/12/28 05:24:06;;;;;;;7.80;4.70;;;8.10;99.90;;;;;;4983228;28;20489;-64
2023/12/28 05:26:34;;;;;;;4.47;3.87;;;8.10;99.90;;;;;;4981031;28;20577;-64
2023/12/28 05:29:02;;;;;;;4.87;3.80;;;8.10;99.90;;;;;;4982326;28;20478;-65
2023/12/28 05:31:30;;;;;;;4.00;3.60;;;8.10;99.90;;;;;;4981079;28;20548;-64
2023/12/28 05:33:59;;;;;;;4.37;3.97;;;8.10;99.90;;;;;;4983049;28;20468;-64
2023/12/28 05:36:27;;;;;;;5.60;4.27;;;8.10;99.90;;;;;;4982283;28;20584;-64
2023/12/28 05:38:56;;;;;;;6.83;3.97;;;8.10;99.90;;;;;;4980743;28;21081;-64
2023/12/28 05:41:24;;;;;;;4.70;3.40;;;8.10;99.90;;;;;;4981286;28;20589;-64
2023/12/28 05:43:51;;;;;;;5.93;4.07;;;8.10;99.90;;;;;;4982320;28;20914;-64
2023/12/28 05:46:19;;;;;;;4.13;3.73;;;8.10;99.90;;;;;;4982376;28;20548;-65
2023/12/28 05:48:47;;;;;;;4.67;3.80;;;8.20;99.90;;;;;;4981014;28;20572;-64
2023/12/28 05:51:18;;;;;;;4.80;3.93;;;8.20;99.90;;;;;;4982218;28;20478;-65
2023/12/28 05:53:46;;;;;;;5.97;3.57;;;8.30;99.90;;;;;;4981973;28;20465;-64
2023/12/28 05:56:14;;;;;;;4.30;3.73;;;8.30;99.90;;;;;;4980289;28;20521;-64
2023/12/28 05:58:42;;;;;;;4.97;3.70;;;8.30;99.90;;;;;;4981572;28;20990;-64
2023/12/28 06:01:10;;;;;;;4.53;3.77;;;8.30;99.90;;;;;;4982337;28;20474;-64
2023/12/28 06:03:38;;;;;;;4.47;3.70;;;8.30;99.90;;;;;;4978604;28;20477;-64
2023/12/28 06:06:07;;;;;;;5.23;3.47;;;8.30;99.90;;;;;;4981679;28;20493;-64
2023/12/28 06:08:36;;;;;;;5.30;4.07;;;8.30;99.90;;;;;;4983322;28;20540;-65
2023/12/28 06:11:04;;;;;;;7.00;4.07;;;8.30;99.90;;;;;;4978316;28;20480;-64
2023/12/28 06:13:32;;;;;;;5.13;4.10;;;8.30;99.90;;;;;;4981765;28;20580;-64
2023/12/28 06:16:00;;;;;;;5.03;3.83;;;8.40;99.90;;;;;;4981531;28;20556;-64
2023/12/28 06:18:28;;;;;;;5.80;4.10;;;8.40;99.90;;;;;;4981800;28;20482;-64
2023/12/28 06:20:57;;;;;;;5.73;4.10;;;8.50;99.90;;;;;;4980898;28;20476;-64
2023/12/28 06:23:26;;;;;;;5.43;4.87;;;8.50;99.90;;;;;;4980900;28;20900;-65
2023/12/28 06:25:55;;;;;;;4.20;3.80;;;8.60;99.90;;;;;;4980750;28;20576;-64
2023/12/28 06:28:23;;;;;;;4.43;3.63;;;8.60;99.90;;;;;;4980778;28;20473;-64
2023/12/28 06:30:52;;;;;;;4.70;3.87;;;8.70;99.90;;;;;;4981204;28;20477;-65
2023/12/28 06:33:20;;;;;;;6.70;4.33;;;8.70;99.90;;;;;;4982702;28;20489;-65
2023/12/28 06:35:48;;;;;;;4.93;3.50;;;8.80;99.90;;;;;;4981256;28;20974;-64
2023/12/28 06:38:16;;;;;;;4.90;3.93;;;8.80;99.90;;;;;;4982177;28;20580;-64
2023/12/28 06:40:44;;;;;;;4.87;3.87;;;8.90;99.90;;;;;;4979579;28;20476;-64
2023/12/28 06:43:13;;;;;;;5.67;3.50;;;8.90;99.90;;;;;;4981452;28;20568;-64
2023/12/28 06:45:41;;;;;;;4.60;4.20;;;8.90;99.90;;;;;;4979159;28;20568;-64
2023/12/28 06:48:09;;;;;;;5.93;4.23;;;9.00;99.90;;;;;;4980016;28;20485;-64
2023/12/28 06:50:37;;;;;;;4.60;3.30;;;9.00;99.90;;;;;;4982131;28;20477;-65
2023/12/28 06:53:05;;;;;;;4.80;3.70;;;9.00;99.90;;;;;;4979261;28;20473;-65
2023/12/28 06:55:34;;;;;;;4.40;4.00;;;9.00;99.90;;;;;;4977895;28;20560;-64
2023/12/28 06:58:03;;;;;;;3.93;3.63;;;9.00;99.90;;;;;;4980114;28;20564;-64
2023/12/28 07:00:32;;;;;;;3.87;3.37;;;9.10;99.90;;;;;;4981117;28;20478;-64
2023/12/28 07:03:00;;;;;;;5.03;3.70;;;9.10;99.90;;;;;;4977681;28;20488;-64
2023/12/28 07:05:28;;;;;;;5.10;4.10;;;9.10;99.90;;;;;;4981492;28;20838;-62
2023/12/28 07:07:57;;;;;;;4.07;3.27;;;9.20;99.90;;;;;;4980923;28;20523;-65
2023/12/28 07:10:25;;;;;;;3.83;3.53;;;9.20;99.90;;;;;;4978689;28;20478;-64
2023/12/28 07:12:53;;;;;;;7.27;3.40;;;9.20;99.90;;;;;;4969152;28;20505;-65
2023/12/28 07:15:21;;;;;;;6.13;3.70;;;9.20;99.90;;;;;;4981837;28;20481;-65
2023/12/28 07:17:51;;;;;;;4.20;3.30;;;9.20;99.90;;;;;;4979788;28;20498;-65
2023/12/28 07:20:19;;;;;;;4.00;3.70;;;9.20;99.90;;;;;;4980952;28;20549;-64
2023/12/28 07:22:47;;;;;;;5.17;4.03;;;9.20;99.90;;;;;;4980115;28;20476;-61
2023/12/28 07:25:15;;;;;;;7.23;4.03;;;9.20;99.90;;;;;;4978298;28;20498;-64
2023/12/28 07:27:43;;;;;;;4.50;3.47;;;9.20;99.90;;;;;;4980695;28;20497;-65
2023/12/28 07:30:12;;;;;;;4.00;3.60;;;9.30;99.90;;;;;;4978488;28;20474;-64
2023/12/28 07:32:40;;;;;;;5.10;3.83;;;9.30;99.90;;;;;;4981917;28;20528;-64
2023/12/28 07:35:10;;;;;;;4.83;3.77;;;9.30;99.90;;;;;;4980290;28;20477;-65
2023/12/28 07:37:38;;;;;;;7.23;3.90;;;9.30;99.90;;;;;;4980685;28;20515;-65
2023/12/28 07:40:07;;;;;;;6.30;3.20;;;9.30;99.90;;;;;;4974463;28;20597;-65
2023/12/28 07:42:35;;;;;;;7.17;3.80;;;9.40;99.90;;;;;;4976059;28;20564;-64
2023/12/28 07:45:04;;;;;;;4.77;3.60;;;9.40;99.90;;;;;;4980198;28;20576;-65
2023/12/28 07:47:33;;;;;;;4.87;3.57;;;9.40;99.90;;;;;;4980271;28;20501;-65
2023/12/28 07:50:02;;;;;;;4.30;3.80;;;9.30;99.90;;;;;;4978859;28;20485;-65
2023/12/28 07:52:31;;;;;;;3.53;3.20;;;9.30;99.90;;;;;;4979228;28;20984;-65
2023/12/28 07:54:59;;;;;;;9.47;3.53;;;9.30;99.90;;;;;;4979233;28;20567;-64
2023/12/28 07:57:27;;;;;;;11.63;4.13;;;9.30;99.90;;;;;;4978842;28;20506;-65
2023/12/28 07:59:55;;;;;;;4.33;3.37;;;9.30;99.90;;;;;;4980003;28;20501;-65
2023/12/28 08:02:23;;;;;;;3.73;3.43;;;9.30;99.90;;;;;;4981576;28;20472;-64
2023/12/28 08:04:51;;;;;;;4.67;3.40;;;9.30;99.90;;;;;;4979290;28;20481;-64
2023/12/28 08:07:19;;;;;;;6.20;3.50;;;9.40;99.90;;;;;;4980373;28;21223;-62
2023/12/28 08:09:49;;;;;;;8.17;3.23;;;9.40;99.90;;;;;;4974424;28;20765;-64
2023/12/28 08:12:18;;;;;;;10.10;5.80;;;9.40;99.90;;;;;;4980447;28;20470;-64
2023/12/28 08:14:46;;;;;;;3.67;2.90;;;9.40;99.90;;;;;;4979772;28;20468;-64
2023/12/28 08:17:14;;;;;;;5.53;3.00;;;9.40;99.90;;;;;;4980537;28;20559;-64
2023/12/28 08:19:41;;;;;;;5.30;3.10;;;9.50;99.90;;;;;;4979498;28;20491;-65
2023/12/28 08:22:10;;;;;;;5.87;3.13;;;9.50;99.90;;;;;;4980258;28;20465;-65
2023/12/28 08:24:38;;;;;;;4.77;3.47;;;9.60;99.90;;;;;;4978584;28;20846;-64
2023/12/28 08:27:07;;;;;;;6.33;3.30;;;9.60;99.90;;;;;;4980381;28;20525;-64
2023/12/28 08:29:36;;;;;;;3.60;3.03;;;9.60;99.90;;;;;;4976223;28;20582;-63
2023/12/28 08:32:05;;;;;;;4.93;3.10;;;9.70;99.90;;;;;;4980887;28;20584;-65
2023/12/28 08:34:33;;;;;;;4.30;2.77;;;9.70;99.90;;;;;;4980627;28;20845;-64
2023/12/28 08:37:01;;;;;;;5.30;2.93;;;9.70;99.90;;;;;;4982154;28;20493;-64
2023/12/28 08:39:29;;;;;;;2.80;2.60;;;9.80;99.90;;;;;;4977302;28;21019;-64
2023/12/28 08:41:57;;;;;;;6.97;3.00;;;9.80;99.90;;;;;;4980170;28;20931;-65
2023/12/28 08:44:26;;;;;;;6.90;3.10;;;9.80;99.90;;;;;;4981028;28;20472;-65
2023/12/28 08:46:54;;;;;;;5.80;3.50;;;9.90;99.90;;;;;;4983422;28;20575;-64
2023/12/28 08:49:23;;;;;;;6.97;3.00;;;9.90;99.90;;;;;;4981787;28;20489;-65
2023/12/28 08:51:51;;;;;;;5.87;2.70;;;9.90;99.90;;;;;;4982229;28;20501;-64
2023/12/28 08:54:19;;;;;;;5.23;2.80;;;9.90;99.90;;;;;;4982641;28;20532;-65
2023/12/28 08:56:48;;;;;;;6.20;2.67;;;9.90;99.90;;;;;;4983958;28;20858;-65
2023/12/28 08:59:20;;;;;;;12.07;3.43;;;10.00;99.90;;;;;;4981805;28;20505;-65
2023/12/28 09:01:49;;;;;;;4.70;2.77;;;10.00;99.90;;;;;;4984154;28;20493;-65
2023/12/28 09:04:18;;;;;;;3.00;2.43;;;10.10;99.90;;;;;;4982662;28;20473;-63
2023/12/28 09:06:46;;;;;;;7.20;3.20;;;10.00;99.90;;;;;;4982483;28;20505;-65
2023/12/28 09:09:14;;;;;;;4.17;2.63;;;10.00;99.90;;;;;;4981506;28;20493;-65
2023/12/28 09:11:42;;;;;;;4.87;2.20;;;10.10;99.90;;;;;;4982824;28;20555;-65
2023/12/28 09:14:10;;;;;;;6.03;2.60;;;10.10;99.90;;;;;;4980344;28;20503;-64
2023/12/28 09:16:39;;;;;;;3.10;2.53;;;10.10;99.90;;;;;;4982263;28;20587;-65
2023/12/28 09:19:08;;;;;;;3.87;2.50;;;10.20;99.90;;;;;;4979685;28;20573;-65
2023/12/28 09:21:36;;;;;;;4.40;2.17;;;10.20;99.90;;;;;;4981563;28;20557;-64
2023/12/28 09:24:04;;;;;;;6.90;3.07;;;10.20;99.90;;;;;;4982492;28;20461;-65
2023/12/28 09:26:33;;;;;;;5.30;2.90;;;10.20;99.90;;;;;;4981093;28;21087;-64
2023/12/28 09:29:01;;;;;;;4.37;2.53;;;10.20;99.90;;;;;;4982551;28;20520;-65
2023/12/28 09:31:29;;;;;;;2.60;2.40;;;10.20;99.90;;;;;;4980484;28;20564;-65
2023/12/28 09:33:57;;;;;;;4.70;2.67;;;10.30;99.90;;;;;;4984004;28;20474;-65
2023/12/28 09:36:26;;;;;;;5.80;2.90;;;10.40;99.90;;;;;;4983888;28;20529;-65
2023/12/28 09:38:54;;;;;;;4.77;2.27;;;10.40;99.90;;;;;;4982951;28;20481;-64
2023/12/28 09:41:26;;;;;;;7.07;2.53;;;10.40;99.90;;;;;;4982731;28;20560;-65
2023/12/28 09:43:59;;;;;;;4.80;2.50;;;10.40;99.90;;;;;;4983565;28;20461;-64
2023/12/28 09:46:27;;;;;;;6.60;2.80;;;10.40;99.90;;;;;;4983566;28;20536;-65
2023/12/28 09:48:56;;;;;;;4.13;2.10;;;10.50;99.90;;;;;;4978206;28;20525;-65
2023/12/28 09:51:27;;;;;;;6.80;2.50;;;10.50;99.90;;;;;;4981808;28;20540;-65
2023/12/28 09:53:55;;;;;;;6.20;2.37;;;10.40;99.90;;;;;;4983081;28;21039;-64
2023/12/28 09:56:23;;;;;;;4.93;2.20;;;10.50;99.90;;;;;;4982299;28;20512;-65
2023/12/28 09:58:56;;;;;;;5.93;2.20;;;10.50;99.90;;;;;;4981209;28;20524;-65
2023/12/28 10:01:24;;;;;;;5.20;2.30;;;10.50;99.90;;;;;;4984063;28;20505;-64
2023/12/28 10:03:52;;;;;;;6.93;2.33;;;10.50;99.90;;;;;;4981460;28;20477;-65
2023/12/28 10:06:21;;;;;;;4.60;2.90;;;10.50;99.90;;;;;;4979964;28;20902;-65
2023/12/28 10:08:51;;;;;;;7.87;2.57;;;10.50;99.90;;;;;;4982460;28;20827;-65
2023/12/28 10:11:20;;;;;;;5.40;2.57;;;10.50;99.90;;;;;;4980891;28;20469;-64
2023/12/28 10:13:50;;;;;;;4.93;2.10;;;10.60;99.90;;;;;;4982905;28;20473;-64
2023/12/28 10:16:18;;;;;;;9.10;2.60;;;10.60;99.90;;;;;;4979678;28;20502;-64
2023/12/28 10:18:45;;;;;;;6.33;2.30;;;10.60;99.90;;;;;;4978568;28;20481;-64
2023/12/28 10:21:13;;;;;;;8.97;3.23;;;10.60;99.90;;;;;;4980639;28;20470;-65
2023/12/28 10:23:42;;;;;;;4.90;3.57;;;10.60;99.90;;;;;;4980544;28;20477;-65
2023/12/28 10:26:12;;;;;;;5.90;2.70;;;10.60;99.90;;;;;;4981096;28;20513;-64
2023/12/28 10:28:41;;;;;;;6.73;2.40;;;10.60;99.90;;;;;;4982104;28;20485;-65
2023/12/28 10:31:09;;;;;;;5.10;2.77;;;10.70;99.90;;;;;;4980461;28;20465;-65
2023/12/28 10:33:38;;;;;;;5.33;2.13;;;10.70;99.90;;;;;;4982066;28;20481;-65
2023/12/28 10:36:09;;;;;;;4.03;2.20;;;10.70;99.90;;;;;;4979460;28;20640;-65
2023/12/28 10:38:37;;;;;;;5.90;2.30;;;10.80;99.90;;;;;;4979927;28;20496;-65
2023/12/28 10:41:08;;;;;;;6.77;2.40;;;10.80;99.90;;;;;;4979482;28;20507;-65
2023/12/28 10:43:46;;;;;;;5.87;2.47;;;10.80;99.90;;;;;;4982185;28;20477;-64
2023/12/28 10:46:24;;;;;;;6.30;2.50;;;10.80;99.90;;;;;;4981792;28;20601;-65
2023/12/28 10:48:54;;;;;;;4.13;2.40;;;10.80;99.90;;;;;;4980411;28;20504;-64
2023/12/28 10:51:27;;;;;;;4.40;2.30;;;10.80;99.90;;;;;;4980069;28;20500;-65
2023/12/28 10:54:06;;;;;;;5.50;2.63;;;10.80;99.90;;;;;;4981356;28;20480;-64
2023/12/28 10:56:37;;;;;;;6.23;2.60;;;10.80;99.90;;;;;;4981652;28;20526;-65
2023/12/28 10:59:16;;;;;;;3.90;1.90;;;10.80;99.90;;;;;;4980228;28;20493;-65
2023/12/28 11:01:48;;;;;;;8.20;2.50;;;10.80;99.90;;;;;;4981691;28;20493;-65
2023/12/28 11:04:24;;;;;;;4.60;2.00;;;10.90;99.90;;;;;;4980781;28;20561;-65
2023/12/28 11:06:53;;;;;;;11.17;2.37;;;10.90;99.90;;;;;;4979050;28;20489;-65
2023/12/28 11:09:22;;;;;;;5.10;2.30;;;11.00;99.90;;;;;;4978677;28;21255;-65
2023/12/28 11:11:52;;;;;;;6.10;2.70;;;11.00;99.90;;;;;;4981117;28;20465;-65
2023/12/28 11:14:22;;;;;;;7.53;2.50;;;11.00;99.90;;;;;;4980597;28;20480;-65
2023/12/28 11:16:51;;;;;;;8.53;2.57;;;11.00;99.90;;;;;;4978655;28;20583;-64
2023/12/28 11:19:21;;;;;;;7.60;2.50;;;11.00;99.90;;;;;;4979903;28;20637;-65
2023/12/28 11:21:49;;;;;;;4.13;2.33;;;11.00;99.90;;;;;;4980193;28;20476;-65
2023/12/28 11:24:18;;;;;;;6.03;2.67;;;11.10;99.90;;;;;;4979944;28;20474;-64
2023/12/28 11:26:54;;;;;;;5.77;2.50;;;11.10;99.90;;;;;;4978752;28;20590;-65
2023/12/28 11:29:24;;;;;;;8.43;2.70;;;11.00;99.90;;;;;;4980412;28;20487;-65
2023/12/28 11:31:53;;;;;;;6.20;2.70;;;11.00;99.90;;;;;;4980441;28;20888;-65
2023/12/28 11:34:26;;;;;;;5.60;2.60;;;11.00;99.90;;;;;;4979484;28;20482;-65
2023/12/28 11:36:57;;;;;;;6.57;2.60;;;11.00;99.90;;;;;;4980763;28;20497;-65
2023/12/28 11:39:33;;;;;;;10.43;2.70;;;11.00;99.90;;;;;;4977873;28;20553;-65
2023/12/28 11:42:02;;;;;;;5.57;2.40;;;11.00;99.90;;;;;;4982735;28;20477;-64
2023/12/28 11:44:32;;;;;;;9.07;2.63;;;11.00;99.90;;;;;;4979217;28;20473;-65
2023/12/28 11:47:11;;;;;;;8.13;2.50;;;11.00;99.90;;;;;;4980535;28;20529;-65
2023/12/28 11:49:40;;;;;;;13.30;3.17;;;11.00;99.90;;;;;;4979491;28;20505;-65
2023/12/28 11:52:10;;;;;;;14.57;3.70;;;11.00;99.90;;;;;;4978177;28;20469;-65
2023/12/28 11:54:38;;;;;;;7.90;2.80;;;11.00;99.90;;;;;;4981328;28;21050;-65
2023/12/28 11:57:06;;;;;;;11.10;2.77;;;11.00;99.90;;;;;;4980711;28;20500;-65
2023/12/28 11:59:38;;;;;;;7.70;2.87;;;11.00;99.90;;;;;;4978959;28;20513;-65
2023/12/28 12:02:07;;;;;;;8.33;2.97;;;11.00;99.90;;;;;;4979982;28;20474;-65
2023/12/28 12:04:36;;;;;;;7.73;3.13;;;11.00;99.90;;;;;;4979187;28;20479;-65
2023/12/28 12:07:04;;;;;;;5.57;2.87;;;11.00;99.90;;;;;;4979203;28;20505;-64
2023/12/28 12:09:34;;;;;;;5.03;2.93;;;11.00;99.90;;;;;;4979990;28;20474;-65
2023/12/28 12:12:03;;;;;;;10.77;2.90;;;11.00;99.90;;;;;;4981185;28;20469;-64
2023/12/28 12:14:31;;;;;;;6.17;3.27;;;11.00;99.90;;;;;;4979874;28;20477;-64
2023/12/28 12:17:01;;;;;;;5.63;2.40;;;11.10;99.90;;;;;;4979395;28;20488;-64
2023/12/28 12:19:29;;;;;;;8.33;3.37;;;11.10;99.90;;;;;;4980232;28;20504;-65
2023/12/28 12:21:58;;;;;;;9.93;2.50;;;11.00;99.90;;;;;;4984095;28;20543;-64
2023/12/28 12:24:26;;;;;;;13.27;3.30;;;11.10;99.90;;;;;;4983959;28;20484;-64
2023/12/28 12:26:53;;;;;;;6.43;2.70;;;11.10;99.90;;;;;;4983181;28;20528;-64
2023/12/28 12:29:21;;;;;;;10.03;2.80;;;11.10;99.90;;;;;;4982626;28;20478;-65
2023/12/28 12:31:56;;;;;;;8.90;3.40;;;11.10;99.90;;;;;;4985631;28;20479;-65
2023/12/28 12:34:26;;;;;;;10.03;2.60;;;11.10;99.90;;;;;;4982512;28;20473;-65
2023/12/28 12:36:54;;;;;;;7.87;2.87;;;11.10;99.90;;;;;;4983146;28;20516;-65
2023/12/28 12:39:24;;;;;;;7.70;3.17;;;11.20;99.90;;;;;;4982918;28;20547;-64
2023/12/28 12:41:53;;;;;;;6.80;2.60;;;11.20;99.90;;;;;;4983164;28;20965;-65
2023/12/28 12:44:22;;;;;;;9.40;3.70;;;11.20;99.90;;;;;;4983419;28;20477;-65
2023/12/28 12:46:57;;;;;;;9.00;3.13;;;11.20;99.90;;;;;;4983307;28;21125;-65
2023/12/28 12:49:26;;;;;;;10.20;4.07;;;11.20;99.90;;;;;;4981932;28;20588;-65
2023/12/28 12:51:55;;;;;;;7.57;2.70;;;11.20;99.90;;;;;;4981999;28;20857;-64
2023/12/28 12:54:24;;;;;;;10.43;2.73;;;11.20;99.90;;;;;;4983048;28;20465;-65
2023/12/28 12:56:52;;;;;;;9.37;3.50;;;11.20;99.90;;;;;;4981587;28;20923;-65
2023/12/28 12:59:21;;;;;;;7.80;3.40;;;11.20;99.90;;;;;;4981841;28;20486;-64
2023/12/28 13:01:49;;;;;;;8.13;2.50;;;11.20;99.90;;;;;;4981882;28;20583;-65